WXM80 ListenWXM80 Stop

You find our weather info also at:

UK Metoffice

WeatherCloud

Weather Underground

Northeastern Weather Network

AWEKAS

Citizen Weather Observer Program (CWOP)

HAMweather, WeatherForYou, PWS Weather


Weather Underground History page Text

Daily Summary for March 7, 2018 Units:  English    Metric   Both
« Previous Day
Next Day »
Daily Weekly Monthly Yearly Custom
  High: Low: Average:
Temperature: 37.0 °F 32.9 °F 34.8 °F
Dew Point: 35.7 °F 30.7 °F 33.5 °F
Humidity: 98 % 78 % 95 %
Wind Speed: 21.0 mph 1.3 mph 9.1 mph
Wind Gust: 31.0 mph - -
Wind:- - ESE
Pressure: 29.74 in 29.24 in -
Precipitation: 0.80 in    
Historical Graphs
 
 
Tabular Data for March 7, 2018
Time Temperature Dew Point Pressure Wind Wind Speed Wind Gust Humidity Rainfall Rate (Hourly)
00:00 36.9 °F 30.7 °F 29.70 in ENE 2.2 mph 5.8 mph 78 % 0.00 in
00:05 36.9 °F 30.7 °F 29.71 in East 2.2 mph 4.6 mph 78 % 0.00 in
00:10 36.9 °F 30.7 °F 29.71 in East 1.3 mph 4.6 mph 78 % 0.00 in
00:15 37.0 °F 31.1 °F 29.70 in ENE 5.4 mph 9.2 mph 79 % 0.00 in
00:20 36.9 °F 31.3 °F 29.70 in ENE 4.3 mph 7.0 mph 80 % 0.00 in
00:25 36.9 °F 31.6 °F 29.72 in ENE 5.0 mph 9.2 mph 81 % 0.00 in
00:30 36.8 °F 31.5 °F 29.72 in ENE 5.2 mph 6.9 mph 81 % 0.00 in
00:35 36.8 °F 31.8 °F 29.74 in East 4.7 mph 6.0 mph 82 % 0.00 in
00:40 36.7 °F 31.7 °F 29.74 in East 3.8 mph 6.0 mph 82 % 0.00 in
00:45 36.6 °F 31.6 °F 29.74 in East 3.3 mph 4.6 mph 82 % 0.00 in
00:50 36.6 °F 31.6 °F 29.74 in East 3.7 mph 5.8 mph 82 % 0.00 in
00:55 36.4 °F 31.7 °F 29.72 in East 3.6 mph 4.6 mph 83 % 0.00 in
01:00 36.3 °F 31.9 °F 29.72 in East 4.9 mph 6.0 mph 84 % 0.00 in
01:05 36.2 °F 32.1 °F 29.71 in East 5.1 mph 8.1 mph 85 % 0.00 in
01:10 36.0 °F 32.2 °F 29.71 in East 5.7 mph 10.0 mph 86 % 0.00 in
01:15 35.8 °F 32.3 °F 29.70 in East 7.1 mph 8.1 mph 87 % 0.00 in
01:20 35.6 °F 32.1 °F 29.69 in East 7.6 mph 9.2 mph 87 % 0.00 in
01:25 35.5 °F 32.3 °F 29.69 in East 6.7 mph 9.2 mph 88 % 0.00 in
01:30 35.3 °F 32.4 °F 29.70 in East 6.0 mph 9.2 mph 89 % 0.00 in
01:36 35.3 °F 32.4 °F 29.70 in East 3.1 mph 6.0 mph 89 % 0.00 in
01:41 35.2 °F 32.6 °F 29.70 in East 6.0 mph 8.0 mph 90 % 0.00 in
01:46 35.2 °F 32.6 °F 29.71 in East 3.0 mph 9.0 mph 90 % 0.00 in
01:51 35.1 °F 32.5 °F 29.71 in East 2.0 mph 6.0 mph 90 % 0.00 in
01:56 35.0 °F 32.6 °F 29.71 in East 3.0 mph 8.0 mph 91 % 0.00 in
02:01 35.0 °F 32.6 °F 29.70 in East 4.4 mph 6.9 mph 91 % 0.00 in
02:06 35.0 °F 32.6 °F 29.69 in East 4.9 mph 6.9 mph 91 % 0.00 in
02:11 34.9 °F 32.8 °F 29.69 in East 5.1 mph 7.0 mph 92 % 0.00 in
02:16 34.8 °F 32.7 °F 29.69 in East 7.1 mph 8.1 mph 92 % 0.00 in
02:21 34.7 °F 32.6 °F 29.69 in East 7.2 mph 10.4 mph 92 % 0.00 in
02:26 34.6 °F 32.5 °F 29.69 in East 6.0 mph 8.0 mph 92 % 0.00 in
02:31 34.5 °F 32.4 °F 29.70 in East 5.0 mph 5.8 mph 92 % 0.00 in
02:36 34.4 °F 32.3 °F 29.70 in ENE 2.7 mph 3.5 mph 92 % 0.00 in
02:41 34.4 °F 32.6 °F 29.70 in East 5.9 mph 7.0 mph 93 % 0.00 in
02:46 34.3 °F 32.5 °F 29.70 in East 2.9 mph 5.8 mph 93 % 0.00 in
02:51 34.2 °F 32.4 °F 29.69 in ENE 3.2 mph 4.6 mph 93 % 0.00 in
02:56 34.2 °F 32.4 °F 29.69 in ENE 3.5 mph 4.6 mph 93 % 0.00 in
03:01 34.1 °F 32.3 °F 29.69 in ENE 3.8 mph 5.8 mph 93 % 0.00 in
03:07 34.1 °F 32.3 °F 29.68 in East 5.6 mph 8.1 mph 93 % 0.00 in
03:12 34.0 °F 32.2 °F 29.67 in East 6.6 mph 8.1 mph 93 % 0.00 in
03:17 33.9 °F 32.4 °F 29.67 in East 7.0 mph 9.2 mph 94 % 0.00 in
03:22 33.9 °F 32.4 °F 29.66 in East 7.5 mph 8.1 mph 94 % 0.00 in
03:27 33.8 °F 32.3 °F 29.67 in East 7.1 mph 9.2 mph 94 % 0.00 in
03:32 33.8 °F 32.3 °F 29.67 in East 7.1 mph 9.2 mph 94 % 0.00 in
03:37 33.8 °F 32.3 °F 29.68 in East 6.0 mph 9.0 mph 94 % 0.00 in
03:42 33.8 °F 32.5 °F 29.68 in East 5.1 mph 8.1 mph 95 % 0.00 in
03:47 33.7 °F 32.4 °F 29.67 in ENE 6.3 mph 8.1 mph 95 % 0.00 in
03:52 33.7 °F 32.4 °F 29.65 in East 5.7 mph 8.1 mph 95 % 0.00 in
03:57 33.8 °F 32.5 °F 29.67 in East 5.9 mph 9.2 mph 95 % 0.00 in
04:02 33.8 °F 32.5 °F 29.69 in ESE 4.3 mph 8.1 mph 95 % 0.00 in
04:07 33.8 °F 32.5 °F 29.68 in East 5.3 mph 6.9 mph 95 % 0.00 in
04:12 33.9 °F 32.6 °F 29.67 in East 5.3 mph 8.1 mph 95 % 0.00 in
04:17 33.9 °F 32.6 °F 29.67 in East 5.7 mph 8.0 mph 95 % 0.00 in
04:22 33.9 °F 32.6 °F 29.67 in East 6.7 mph 9.2 mph 95 % 0.00 in
04:28 33.9 °F 32.6 °F 29.66 in East 7.7 mph 8.1 mph 95 % 0.00 in
04:33 34.0 °F 32.7 °F 29.65 in East 7.9 mph 10.4 mph 95 % 0.00 in
04:38 34.1 °F 32.8 °F 29.65 in East 7.7 mph 10.4 mph 95 % 0.00 in
04:43 34.1 °F 32.8 °F 29.64 in East 8.2 mph 10.4 mph 95 % 0.00 in
04:48 34.2 °F 32.9 °F 29.63 in ENE 8.3 mph 9.2 mph 95 % 0.00 in
04:53 34.2 °F 33.2 °F 29.62 in ENE 6.9 mph 9.2 mph 96 % 0.00 in
04:58 34.3 °F 33.3 °F 29.63 in East 8.3 mph 9.2 mph 96 % 0.00 in
05:03 34.3 °F 33.3 °F 29.63 in ENE 6.6 mph 10.4 mph 96 % 0.00 in
05:08 34.3 °F 33.3 °F 29.63 in East 7.8 mph 9.2 mph 96 % 0.00 in
05:13 34.3 °F 33.3 °F 29.63 in East 7.7 mph 9.2 mph 96 % 0.00 in
05:18 34.3 °F 33.3 °F 29.64 in East 6.1 mph 8.1 mph 96 % 0.00 in
05:24 34.3 °F 33.3 °F 29.65 in East 6.6 mph 9.2 mph 96 % 0.00 in
05:27 34.3 °F 33.3 °F 29.64 in East 7.5 mph 9.2 mph 96 % 0.00 in
05:32 34.3 °F 33.3 °F 29.63 in ENE 7.0 mph 8.1 mph 96 % 0.00 in
05:37 34.3 °F 33.3 °F 29.63 in East 8.0 mph 10.4 mph 96 % 0.00 in
05:42 34.4 °F 33.4 °F 29.62 in East 6.4 mph 11.0 mph 96 % 0.00 in
05:47 34.4 °F 33.4 °F 29.62 in East 7.6 mph 11.5 mph 96 % 0.00 in
05:52 34.5 °F 33.5 °F 29.63 in East 6.8 mph 9.2 mph 96 % 0.00 in
05:57 34.5 °F 33.5 °F 29.63 in East 9.4 mph 11.5 mph 96 % 0.00 in
06:02 34.5 °F 33.5 °F 29.64 in East 8.5 mph 10.4 mph 96 % 0.00 in
06:07 34.5 °F 33.5 °F 29.63 in East 9.0 mph 9.2 mph 96 % 0.00 in
06:12 34.6 °F 33.6 °F 29.63 in East 7.3 mph 10.4 mph 96 % 0.00 in
06:17 34.6 °F 33.6 °F 29.63 in East 7.9 mph 11.5 mph 96 % 0.00 in
06:22 34.6 °F 33.6 °F 29.63 in East 8.0 mph 11.5 mph 96 % 0.00 in
06:27 34.6 °F 33.6 °F 29.63 in East 8.1 mph 10.0 mph 96 % 0.00 in
06:32 34.7 °F 33.7 °F 29.63 in East 6.0 mph 9.2 mph 96 % 0.00 in
06:37 34.7 °F 33.7 °F 29.63 in East 7.5 mph 10.4 mph 96 % 0.00 in
06:42 34.8 °F 33.8 °F 29.61 in East 8.6 mph 9.2 mph 96 % 0.00 in
06:47 34.8 °F 33.8 °F 29.61 in East 6.9 mph 8.0 mph 96 % 0.00 in
06:52 34.8 °F 33.8 °F 29.61 in East 7.2 mph 10.4 mph 96 % 0.00 in
06:57 34.9 °F 33.9 °F 29.61 in East 8.3 mph 11.5 mph 96 % 0.00 in
07:02 35.0 °F 34.0 °F 29.61 in East 10.2 mph 11.0 mph 96 % 0.00 in
07:08 35.0 °F 34.0 °F 29.61 in East 9.3 mph 10.0 mph 96 % 0.00 in
07:13 35.1 °F 34.1 °F 29.61 in East 10.4 mph 14.0 mph 96 % 0.00 in
07:18 35.2 °F 34.2 °F 29.60 in East 8.8 mph 14.0 mph 96 % 0.00 in
07:23 35.3 °F 34.3 °F 29.60 in East 9.2 mph 16.1 mph 96 % 0.00 in
07:28 35.3 °F 34.3 °F 29.60 in East 9.8 mph 13.0 mph 96 % 0.00 in
07:33 35.4 °F 34.4 °F 29.60 in East 9.3 mph 13.0 mph 96 % 0.00 in
07:38 35.5 °F 34.5 °F 29.59 in East 11.2 mph 15.0 mph 96 % 0.00 in
07:43 35.6 °F 34.6 °F 29.59 in East 9.1 mph 13.8 mph 96 % 0.00 in
07:48 35.7 °F 34.7 °F 29.58 in ENE 9.7 mph 11.5 mph 96 % 0.00 in
07:53 35.8 °F 34.8 °F 29.58 in East 10.6 mph 14.0 mph 96 % 0.00 in
07:58 35.9 °F 34.9 °F 29.57 in East 9.4 mph 11.5 mph 96 % 0.00 in
08:03 36.0 °F 35.0 °F 29.57 in East 12.3 mph 15.0 mph 96 % 0.00 in
08:08 36.0 °F 35.0 °F 29.57 in East 11.1 mph 13.0 mph 96 % 0.00 in
08:13 36.1 °F 35.1 °F 29.56 in ENE 9.5 mph 13.0 mph 96 % 0.00 in
08:18 36.2 °F 35.2 °F 29.56 in ENE 12.7 mph 15.0 mph 96 % 0.00 in
08:23 36.3 °F 35.3 °F 29.56 in East 10.6 mph 15.0 mph 96 % 0.00 in
08:28 36.4 °F 35.4 °F 29.56 in ENE 11.0 mph 17.3 mph 96 % 0.00 in
08:33 36.4 °F 35.1 °F 29.56 in East 12.9 mph 16.1 mph 95 % 0.00 in
08:38 36.4 °F 35.4 °F 29.55 in East 12.4 mph 16.1 mph 96 % 0.00 in
08:43 36.5 °F 35.5 °F 29.55 in East 10.8 mph 15.0 mph 96 % 0.00 in
08:49 36.6 °F 35.3 °F 29.55 in East 11.3 mph 15.0 mph 95 % 0.00 in
08:54 36.6 °F 35.3 °F 29.55 in East 12.3 mph 17.3 mph 95 % 0.00 in
08:59 36.7 °F 35.4 °F 29.55 in ENE 10.7 mph 15.0 mph 95 % 0.00 in
09:04 36.8 °F 35.5 °F 29.55 in East 11.5 mph 15.0 mph 95 % 0.00 in
09:09 36.8 °F 35.5 °F 29.55 in East 11.5 mph 16.1 mph 95 % 0.00 in
09:14 36.9 °F 35.6 °F 29.55 in East 10.9 mph 15.0 mph 95 % 0.00 in
09:19 37.0 °F 35.7 °F 29.54 in ENE 11.4 mph 14.0 mph 95 % 0.00 in
09:24 36.9 °F 35.3 °F 29.54 in East 12.0 mph 17.3 mph 94 % 0.00 in
09:29 36.8 °F 35.2 °F 29.54 in ENE 13.2 mph 17.3 mph 94 % 0.00 in
09:34 36.7 °F 35.1 °F 29.54 in East 12.8 mph 16.1 mph 94 % 0.00 in
09:39 36.7 °F 35.1 °F 29.54 in ENE 12.9 mph 16.1 mph 94 % 0.00 in
09:44 36.7 °F 35.4 °F 29.53 in ENE 12.3 mph 16.1 mph 95 % 0.00 in
09:49 36.7 °F 35.4 °F 29.53 in ENE 12.9 mph 20.7 mph 95 % 0.00 in
09:54 36.7 °F 35.4 °F 29.52 in East 14.4 mph 18.4 mph 95 % 0.00 in
09:59 36.7 °F 35.4 °F 29.51 in ENE 13.1 mph 17.0 mph 95 % 0.00 in
10:04 36.7 °F 35.4 °F 29.51 in East 13.7 mph 21.9 mph 95 % 0.00 in
10:09 36.6 °F 35.3 °F 29.51 in ENE 11.6 mph 19.6 mph 95 % 0.00 in
10:14 36.5 °F 35.2 °F 29.50 in East 14.5 mph 18.4 mph 95 % 0.00 in
10:19 36.4 °F 35.1 °F 29.49 in ENE 16.7 mph 20.7 mph 95 % 0.00 in
10:24 36.3 °F 35.0 °F 29.50 in ENE 14.0 mph 20.7 mph 95 % 0.00 in
10:29 36.2 °F 34.9 °F 29.49 in ENE 14.3 mph 19.6 mph 95 % 0.00 in
10:35 36.2 °F 34.9 °F 29.48 in ENE 14.6 mph 24.2 mph 95 % 0.00 in
10:40 36.4 °F 35.4 °F 29.48 in East 15.2 mph 19.6 mph 96 % 0.00 in
10:45 36.3 °F 35.3 °F 29.48 in ENE 15.3 mph 19.0 mph 96 % 0.01 in
10:50 36.4 °F 35.4 °F 29.48 in East 13.7 mph 17.3 mph 96 % 0.01 in
10:55 36.4 °F 35.4 °F 29.47 in East 12.7 mph 19.6 mph 96 % 0.01 in
11:00 36.5 °F 35.5 °F 29.46 in ENE 13.3 mph 18.4 mph 96 % 0.01 in
11:05 36.6 °F 35.6 °F 29.46 in ENE 16.2 mph 22.0 mph 96 % 0.01 in
11:10 36.7 °F 35.7 °F 29.45 in East 16.7 mph 20.7 mph 96 % 0.01 in
11:15 36.6 °F 35.6 °F 29.45 in NE 18.1 mph 23.0 mph 96 % 0.01 in
11:20 36.7 °F 35.7 °F 29.45 in ENE 13.9 mph 21.0 mph 96 % 0.01 in
11:25 36.6 °F 35.6 °F 29.45 in ENE 14.4 mph 24.2 mph 96 % 0.01 in
11:30 36.6 °F 35.6 °F 29.44 in ENE 17.4 mph 25.0 mph 96 % 0.02 in
11:35 36.5 °F 35.5 °F 29.43 in East 16.8 mph 24.2 mph 96 % 0.02 in
11:40 36.5 °F 35.5 °F 29.43 in East 16.0 mph 23.0 mph 96 % 0.01 in
11:45 36.4 °F 35.4 °F 29.43 in East 16.3 mph 23.0 mph 96 % 0.01 in
11:50 36.4 °F 35.4 °F 29.43 in ENE 18.7 mph 24.2 mph 96 % 0.01 in
11:55 36.4 °F 35.4 °F 29.42 in East 15.7 mph 19.6 mph 96 % 0.02 in
12:00 36.3 °F 35.3 °F 29.42 in East 16.1 mph 21.9 mph 96 % 0.02 in
12:05 36.1 °F 35.1 °F 29.42 in East 13.6 mph 18.4 mph 96 % 0.02 in
12:10 35.8 °F 34.5 °F 29.41 in ESE 15.3 mph 24.2 mph 95 % 0.03 in
12:15 35.4 °F 34.1 °F 29.41 in East 17.3 mph 26.5 mph 95 % 0.04 in
12:20 35.1 °F 33.8 °F 29.40 in ENE 19.0 mph 23.0 mph 95 % 0.05 in
12:26 34.9 °F 33.9 °F 29.40 in ENE 15.0 mph 21.0 mph 96 % 0.01 in
12:31 34.7 °F 33.7 °F 29.39 in ENE 15.0 mph 25.0 mph 96 % 0.00 in
12:36 34.6 °F 33.6 °F 29.39 in ENE 15.0 mph 24.0 mph 96 % 0.00 in
12:41 34.6 °F 33.6 °F 29.38 in ENE 20.0 mph 26.0 mph 96 % 0.00 in
12:46 34.5 °F 33.5 °F 29.37 in ENE 21.0 mph 31.0 mph 96 % 0.00 in
12:51 34.4 °F 33.4 °F 29.36 in ENE 16.0 mph 24.0 mph 96 % 0.00 in
12:56 34.3 °F 33.3 °F 29.36 in ENE 14.0 mph 22.0 mph 96 % 0.00 in
13:01 34.1 °F 33.1 °F 29.36 in ENE 14.6 mph 18.4 mph 96 % 0.07 in
13:06 34.1 °F 33.1 °F 29.35 in ENE 15.1 mph 20.0 mph 96 % 0.07 in
13:11 34.0 °F 33.0 °F 29.34 in ENE 14.7 mph 23.0 mph 96 % 0.05 in
13:16 33.9 °F 32.9 °F 29.34 in ENE 10.5 mph 16.1 mph 96 % 0.06 in
13:21 33.8 °F 32.8 °F 29.34 in ENE 12.6 mph 20.7 mph 96 % 0.05 in
13:26 33.7 °F 32.7 °F 29.34 in ENE 12.0 mph 17.3 mph 96 % 0.05 in
13:31 33.6 °F 32.6 °F 29.33 in NE 4.3 mph 5.8 mph 96 % 0.05 in
13:36 33.5 °F 32.5 °F 29.33 in ENE 7.1 mph 12.0 mph 96 % 0.06 in
13:41 33.5 °F 32.5 °F 29.33 in NNE 7.6 mph 13.8 mph 96 % 0.05 in
13:46 33.4 °F 32.4 °F 29.32 in North 7.2 mph 13.8 mph 96 % 0.06 in
13:51 33.4 °F 32.4 °F 29.32 in NNE 8.2 mph 16.1 mph 96 % 0.05 in
13:56 33.4 °F 32.4 °F 29.32 in NNE 9.6 mph 16.1 mph 96 % 0.06 in
14:01 33.4 °F 32.6 °F 29.32 in NNE 9.6 mph 15.0 mph 97 % 0.05 in
14:06 33.5 °F 32.7 °F 29.32 in NE 8.5 mph 16.0 mph 97 % 0.05 in
14:11 33.5 °F 32.7 °F 29.32 in NE 9.2 mph 12.7 mph 97 % 0.06 in
14:16 33.4 °F 32.6 °F 29.31 in NE 11.1 mph 16.1 mph 97 % 0.05 in
14:21 33.4 °F 32.6 °F 29.31 in NE 9.5 mph 12.0 mph 97 % 0.05 in
14:26 33.4 °F 32.6 °F 29.30 in NE 8.6 mph 12.7 mph 97 % 0.05 in
14:31 33.3 °F 32.5 °F 29.30 in North 8.4 mph 13.8 mph 97 % 0.05 in
14:36 33.3 °F 32.5 °F 29.30 in NE 7.6 mph 8.1 mph 97 % 0.05 in
14:42 33.3 °F 32.5 °F 29.29 in NNE 7.5 mph 15.0 mph 97 % 0.05 in
14:47 33.4 °F 32.6 °F 29.28 in NE 6.6 mph 11.5 mph 97 % 0.05 in
14:52 33.4 °F 32.6 °F 29.27 in NNE 9.3 mph 19.6 mph 97 % 0.05 in
14:57 33.4 °F 32.6 °F 29.27 in NNE 7.7 mph 11.5 mph 97 % 0.05 in
15:01 33.5 °F 32.7 °F 29.27 in NNE 7.9 mph 12.0 mph 97 % 0.05 in
15:06 33.5 °F 32.7 °F 29.26 in NE 7.8 mph 12.7 mph 97 % 0.06 in
15:11 33.6 °F 32.8 °F 29.26 in NE 9.0 mph 18.0 mph 97 % 0.00 in
15:16 33.6 °F 32.8 °F 29.26 in NNE 9.3 mph 20.7 mph 97 % 0.06 in
15:21 33.6 °F 32.8 °F 29.26 in NNE 8.5 mph 16.1 mph 97 % 0.06 in
15:26 33.6 °F 32.8 °F 29.25 in ENE 8.2 mph 13.8 mph 97 % 0.06 in
15:31 33.6 °F 32.8 °F 29.25 in NNE 10.7 mph 18.4 mph 97 % 0.07 in
15:36 33.6 °F 32.8 °F 29.25 in NE 9.5 mph 15.0 mph 97 % 0.06 in
15:41 33.6 °F 32.8 °F 29.25 in NE 9.1 mph 12.0 mph 97 % 0.07 in
15:47 33.6 °F 32.8 °F 29.24 in NNE 10.5 mph 16.1 mph 97 % 0.06 in
15:52 33.5 °F 32.7 °F 29.24 in NE 9.5 mph 16.1 mph 97 % 0.07 in
15:57 33.5 °F 32.7 °F 29.24 in NNE 10.0 mph 15.0 mph 97 % 0.06 in
16:02 33.5 °F 32.7 °F 29.24 in NNE 7.5 mph 11.5 mph 97 % 0.07 in
16:07 33.4 °F 32.6 °F 29.24 in NNE 10.8 mph 17.3 mph 97 % 0.06 in
16:12 33.4 °F 32.6 °F 29.25 in NNE 8.6 mph 16.1 mph 97 % 0.06 in
16:17 33.4 °F 32.6 °F 29.25 in NE 10.6 mph 17.3 mph 97 % 0.06 in
16:22 33.4 °F 32.6 °F 29.25 in NNE 11.7 mph 18.4 mph 97 % 0.05 in
16:27 33.4 °F 32.6 °F 29.26 in NNE 11.4 mph 15.0 mph 97 % 0.06 in
16:32 33.4 °F 32.6 °F 29.26 in NNE 11.3 mph 15.0 mph 97 % 0.05 in
16:37 33.3 °F 32.5 °F 29.26 in NNE 12.3 mph 16.0 mph 97 % 0.05 in
16:43 33.2 °F 32.4 °F 29.27 in NNE 7.9 mph 16.1 mph 97 % 0.05 in
16:48 33.1 °F 32.3 °F 29.28 in North 13.5 mph 19.6 mph 97 % 0.06 in
16:53 33.1 °F 32.3 °F 29.28 in NNE 9.4 mph 12.7 mph 97 % 0.05 in
16:58 33.0 °F 32.2 °F 29.29 in North 8.9 mph 12.7 mph 97 % 0.05 in
17:03 33.0 °F 32.2 °F 29.29 in NNE 9.5 mph 17.3 mph 97 % 0.05 in
17:08 33.0 °F 32.2 °F 29.28 in NNW 7.4 mph 10.0 mph 97 % 0.06 in
17:13 32.9 °F 32.1 °F 29.27 in NNE 9.8 mph 15.0 mph 97 % 0.06 in
17:18 32.9 °F 32.1 °F 29.26 in North 9.9 mph 18.4 mph 97 % 0.06 in
17:23 32.9 °F 32.1 °F 29.27 in NNE 9.6 mph 13.0 mph 97 % 0.07 in
17:28 32.9 °F 32.1 °F 29.27 in North 7.5 mph 11.5 mph 97 % 0.07 in
17:33 32.9 °F 32.1 °F 29.26 in NNE 7.2 mph 11.5 mph 97 % 0.08 in
17:38 32.9 °F 32.1 °F 29.26 in NNE 5.4 mph 9.2 mph 97 % 0.08 in
17:43 32.9 °F 32.1 °F 29.26 in North 7.9 mph 13.8 mph 97 % 0.09 in
17:48 33.0 °F 32.2 °F 29.26 in NNE 10.1 mph 15.0 mph 97 % 0.08 in
17:53 33.0 °F 32.2 °F 29.26 in North 9.9 mph 19.6 mph 97 % 0.09 in
17:58 33.0 °F 32.2 °F 29.25 in North 9.0 mph 11.5 mph 97 % 0.09 in
18:03 33.1 °F 32.3 °F 29.26 in NNE 9.8 mph 15.0 mph 97 % 0.09 in
18:09 33.1 °F 32.3 °F 29.26 in NNW 6.9 mph 11.5 mph 97 % 0.09 in
18:14 33.1 °F 32.3 °F 29.27 in NNE 9.7 mph 13.8 mph 97 % 0.09 in
18:19 33.1 °F 32.3 °F 29.27 in North 7.6 mph 12.0 mph 97 % 0.08 in
18:24 33.0 °F 32.2 °F 29.27 in NNE 7.4 mph 11.5 mph 97 % 0.09 in
18:29 33.0 °F 32.2 °F 29.27 in NNW 8.4 mph 15.0 mph 97 % 0.09 in
18:34 33.0 °F 32.2 °F 29.26 in NNE 9.3 mph 12.7 mph 97 % 0.08 in
18:39 33.0 °F 32.2 °F 29.27 in NNE 8.9 mph 13.8 mph 97 % 0.08 in
18:44 33.0 °F 32.2 °F 29.27 in NNW 7.8 mph 11.5 mph 97 % 0.08 in
18:49 33.0 °F 32.2 °F 29.28 in NW 9.5 mph 12.7 mph 97 % 0.08 in
18:54 33.0 °F 32.2 °F 29.28 in North 6.3 mph 11.5 mph 97 % 0.08 in
18:59 33.0 °F 32.2 °F 29.28 in NNE 7.4 mph 11.5 mph 97 % 0.08 in
19:04 33.1 °F 32.3 °F 29.29 in North 7.7 mph 11.5 mph 97 % 0.08 in
19:09 33.2 °F 32.7 °F 29.29 in NNE 8.1 mph 12.7 mph 98 % 0.08 in
19:14 33.3 °F 32.8 °F 29.30 in North 7.3 mph 12.7 mph 98 % 0.08 in
19:19 33.3 °F 32.8 °F 29.30 in North 7.8 mph 10.4 mph 98 % 0.09 in
19:24 33.4 °F 32.9 °F 29.30 in NNE 8.0 mph 11.5 mph 98 % 0.09 in
19:29 33.5 °F 32.7 °F 29.30 in NNE 7.1 mph 9.0 mph 97 % 0.09 in
19:34 33.5 °F 32.7 °F 29.31 in NNE 3.5 mph 8.1 mph 97 % 0.09 in
19:39 33.5 °F 33.0 °F 29.31 in North 5.5 mph 15.0 mph 98 % 0.09 in
19:44 33.6 °F 33.1 °F 29.32 in NNE 8.2 mph 11.5 mph 98 % 0.09 in
19:49 33.6 °F 33.1 °F 29.32 in North 7.4 mph 11.5 mph 98 % 0.10 in
19:55 33.7 °F 33.2 °F 29.32 in NNW 7.7 mph 13.8 mph 98 % 0.10 in
20:00 33.8 °F 33.3 °F 29.32 in North 7.4 mph 16.1 mph 98 % 0.10 in
20:05 33.9 °F 33.1 °F 29.32 in North 5.8 mph 12.7 mph 97 % 0.10 in
20:10 34.0 °F 33.2 °F 29.32 in NW 5.4 mph 11.5 mph 97 % 0.10 in
20:15 34.0 °F 33.2 °F 29.32 in NNW 5.6 mph 13.0 mph 97 % 0.11 in
20:20 34.1 °F 33.3 °F 29.32 in NNW 11.1 mph 19.6 mph 97 % 0.11 in
20:25 34.2 °F 33.7 °F 29.32 in NNW 6.0 mph 11.5 mph 98 % 0.10 in
20:30 34.4 °F 33.9 °F 29.32 in NNW 9.2 mph 13.8 mph 98 % 0.10 in
20:35 34.5 °F 34.0 °F 29.32 in NNW 8.7 mph 18.4 mph 98 % 0.11 in
20:40 34.6 °F 33.8 °F 29.32 in NNW 6.5 mph 16.0 mph 97 % 0.11 in
20:45 34.8 °F 34.3 °F 29.32 in NE 6.8 mph 11.5 mph 98 % 0.11 in
20:50 35.0 °F 34.5 °F 29.32 in North 12.3 mph 24.0 mph 98 % 0.11 in
20:55 35.1 °F 34.3 °F 29.32 in NNW 8.5 mph 18.4 mph 97 % 0.11 in
21:00 35.3 °F 34.8 °F 29.32 in NNE 15.2 mph 24.0 mph 98 % 0.10 in
21:05 35.6 °F 35.1 °F 29.32 in NE 13.6 mph 21.9 mph 98 % 0.10 in
21:10 35.7 °F 34.9 °F 29.32 in North 11.2 mph 19.6 mph 97 % 0.09 in
21:16 35.8 °F 35.3 °F 29.32 in NE 11.7 mph 17.3 mph 98 % 0.09 in
21:21 35.9 °F 35.1 °F 29.32 in North 16.4 mph 23.0 mph 97 % 0.08 in
21:26 36.0 °F 35.2 °F 29.31 in North 14.0 mph 24.0 mph 97 % 0.00 in
21:31 36.0 °F 35.2 °F 29.30 in North 14.0 mph 26.0 mph 97 % 0.00 in
21:36 36.0 °F 35.2 °F 29.31 in NNE 14.0 mph 26.0 mph 97 % 0.00 in
21:41 36.0 °F 35.2 °F 29.31 in NNW 13.2 mph 26.5 mph 97 % 0.07 in
21:46 36.0 °F 35.2 °F 29.31 in North 8.0 mph 21.0 mph 97 % 0.00 in
21:51 36.1 °F 35.3 °F 29.31 in North 14.0 mph 25.0 mph 97 % 0.00 in
21:56 36.1 °F 35.3 °F 29.31 in NNE 12.0 mph 25.0 mph 97 % 0.01 in
22:01 36.1 °F 35.3 °F 29.31 in North 8.0 mph 12.7 mph 97 % 0.05 in
22:06 36.1 °F 35.3 °F 29.31 in North 9.5 mph 12.7 mph 97 % 0.04 in
22:11 36.0 °F 35.0 °F 29.31 in NNW 6.6 mph 13.8 mph 96 % 0.04 in
22:16 36.0 °F 35.0 °F 29.32 in North 5.8 mph 15.0 mph 96 % 0.03 in
22:21 36.1 °F 35.1 °F 29.32 in NNW 10.2 mph 16.0 mph 96 % 0.02 in
22:26 36.0 °F 35.0 °F 29.32 in NNW 6.4 mph 11.5 mph 96 % 0.02 in
22:31 35.9 °F 34.9 °F 29.33 in NNW 7.6 mph 10.4 mph 96 % 0.03 in
22:36 35.8 °F 34.8 °F 29.33 in NNW 4.7 mph 13.8 mph 96 % 0.02 in
22:41 35.7 °F 34.7 °F 29.34 in NNW 4.7 mph 11.5 mph 96 % 0.03 in
22:46 35.7 °F 34.7 °F 29.34 in WNW 4.3 mph 9.2 mph 96 % 0.03 in
22:51 35.7 °F 34.7 °F 29.34 in West 2.9 mph 6.0 mph 96 % 0.04 in
22:56 35.6 °F 34.6 °F 29.34 in NW 3.9 mph 11.0 mph 96 % 0.03 in
23:01 35.4 °F 34.4 °F 29.34 in NW 6.3 mph 13.0 mph 96 % 0.03 in
23:06 35.1 °F 34.1 °F 29.34 in West 4.9 mph 12.7 mph 96 % 0.03 in
23:11 34.8 °F 33.8 °F 29.35 in West 6.7 mph 11.5 mph 96 % 0.04 in
23:16 34.6 °F 33.6 °F 29.34 in WNW 5.1 mph 13.0 mph 96 % 0.04 in
23:21 34.4 °F 33.4 °F 29.35 in West 5.8 mph 13.8 mph 96 % 0.04 in
23:26 34.3 °F 33.3 °F 29.35 in NW 7.1 mph 10.4 mph 96 % 0.05 in
23:31 34.2 °F 33.2 °F 29.35 in WNW 6.6 mph 11.5 mph 96 % 0.04 in
23:37 34.1 °F 33.1 °F 29.35 in NW 5.5 mph 13.8 mph 96 % 0.04 in
23:42 34.0 °F 33.0 °F 29.36 in WNW 7.4 mph 11.5 mph 96 % 0.03 in
23:47 34.0 °F 33.0 °F 29.36 in West 7.3 mph 11.5 mph 96 % 0.02 in
23:52 33.9 °F 32.9 °F 29.37 in NW 3.8 mph 11.5 mph 96 % 0.03 in
23:57 33.9 °F 32.9 °F 29.37 in NW 5.1 mph 11.5 mph 96 % 0.03 in
Crab Meadow Weather
Compliments of Weather Underground - 3 mb

Script developed by  Jim McMurry - jmcmurry@mwt.net Adapted for the template by  Wim van der Kuil - Leuven-Template.eu

Recycling: Americans threw away 38 billion plastic water bottles in 2006. A million and a half barrels of oil - enough to fuel 100,000 cars for a year - were used to produce the bottles.